createdAt,value
2022-08-11T00:02:00.533Z,16.00
2022-08-11T00:04:34.619Z,16.10
2022-08-11T00:07:03.850Z,16.10
2022-08-11T00:09:39.575Z,16.10
2022-08-11T00:12:15.081Z,16.10
2022-08-11T00:14:42.862Z,16.20
2022-08-11T00:17:12.566Z,16.10
2022-08-11T00:20:13.866Z,16.10
2022-08-11T00:22:34.223Z,16.10
2022-08-11T00:25:19.155Z,16.10
2022-08-11T00:27:47.646Z,16.10
2022-08-11T00:30:16.391Z,16.00
2022-08-11T00:32:53.243Z,16.00
2022-08-11T00:35:55.939Z,16.00
2022-08-11T00:38:14.332Z,16.00
2022-08-11T00:40:53.257Z,16.00
2022-08-11T00:43:49.813Z,15.90
2022-08-11T00:46:26.111Z,15.90
2022-08-11T00:49:12.143Z,15.80
2022-08-11T00:52:04.760Z,15.80
2022-08-11T00:54:57.956Z,15.80
2022-08-11T00:57:39.672Z,15.80
2022-08-11T01:00:14.166Z,15.70
2022-08-11T01:03:07.802Z,15.70
2022-08-11T01:05:56.812Z,15.70
2022-08-11T01:08:38.777Z,15.70
2022-08-11T01:11:25.351Z,15.70
2022-08-11T01:14:16.435Z,15.80
2022-08-11T01:17:25.092Z,15.80
2022-08-11T01:20:47.107Z,15.90
2022-08-11T01:23:25.897Z,16.00
2022-08-11T01:25:57.018Z,15.90
2022-08-11T01:28:57.385Z,15.90
2022-08-11T01:31:45.396Z,15.80
2022-08-11T01:34:27.431Z,15.80
2022-08-11T01:36:56.894Z,15.80
2022-08-11T01:39:41.901Z,15.90
2022-08-11T01:42:52.243Z,15.80
2022-08-11T01:45:21.320Z,15.80
2022-08-11T01:48:08.043Z,15.90
2022-08-11T01:50:54.014Z,15.80
2022-08-11T01:53:42.060Z,15.90
2022-08-11T01:56:39.729Z,15.90
2022-08-11T01:59:34.358Z,15.80
2022-08-11T02:02:42.449Z,15.80
2022-08-11T02:05:33.578Z,15.70
2022-08-11T02:08:21.654Z,15.80
2022-08-11T02:11:28.313Z,15.70
2022-08-11T02:14:10.846Z,15.60
2022-08-11T02:16:55.735Z,15.60
2022-08-11T02:20:13.318Z,15.60
2022-08-11T02:22:58.699Z,15.60
2022-08-11T02:25:28.521Z,15.60
2022-08-11T02:28:07.734Z,15.50
2022-08-11T02:30:42.820Z,15.50
2022-08-11T02:33:24.217Z,15.50
2022-08-11T02:36:08.967Z,15.50
2022-08-11T02:39:00.913Z,15.40
2022-08-11T02:42:00.126Z,15.40
2022-08-11T02:44:36.159Z,15.40
2022-08-11T02:47:31.929Z,15.30
2022-08-11T02:50:23.545Z,15.30
2022-08-11T02:53:12.929Z,15.30
2022-08-11T02:55:57.296Z,15.30
2022-08-11T02:59:18.276Z,15.20
2022-08-11T03:04:51.725Z,15.20
2022-08-11T03:08:06.426Z,15.10
2022-08-11T03:11:30.735Z,15.10
2022-08-11T03:14:28.832Z,15.10
2022-08-11T03:17:10.902Z,15.00
2022-08-11T03:19:53.731Z,15.00
2022-08-11T03:22:38.802Z,15.00
2022-08-11T03:25:31.889Z,15.00
2022-08-11T03:28:09.967Z,14.90
2022-08-11T03:30:56.893Z,14.90
2022-08-11T03:33:52.493Z,14.90
2022-08-11T03:36:28.339Z,14.80
2022-08-11T03:39:10.769Z,14.80
2022-08-11T03:42:03.223Z,14.70
2022-08-11T03:44:56.282Z,14.70
2022-08-11T03:47:36.634Z,14.70
2022-08-11T03:50:34.825Z,14.60
2022-08-11T03:53:28.185Z,14.60
2022-08-11T03:55:57.754Z,14.60
2022-08-11T03:58:41.877Z,14.60
2022-08-11T04:01:43.120Z,14.50
2022-08-11T04:04:22.130Z,14.50
2022-08-11T04:07:03.309Z,14.50
2022-08-11T04:10:07.764Z,14.40
2022-08-11T04:13:12.125Z,14.40
2022-08-11T04:16:12.537Z,14.40
2022-08-11T04:19:13.780Z,14.30
2022-08-11T04:22:11.184Z,14.30
2022-08-11T04:24:48.364Z,14.30
2022-08-11T04:28:06.447Z,14.20
2022-08-11T04:30:42.132Z,14.20
2022-08-11T04:33:56.085Z,14.30
2022-08-11T04:36:59.613Z,14.30
2022-08-11T04:39:44.994Z,14.30
2022-08-11T04:42:59.529Z,14.30
2022-08-11T04:45:35.644Z,14.20
2022-08-11T04:48:36.289Z,14.20
2022-08-11T04:51:56.341Z,14.20
2022-08-11T04:55:19.457Z,14.20
2022-08-11T04:58:31.500Z,14.30
2022-08-11T05:01:39.337Z,14.30
2022-08-11T05:04:34.011Z,14.30
2022-08-11T05:07:28.097Z,14.30
2022-08-11T05:10:19.912Z,14.40
2022-08-11T05:12:53.454Z,14.40
2022-08-11T05:15:52.052Z,14.50
2022-08-11T05:18:43.402Z,14.60
2022-08-11T05:21:44.227Z,14.70
2022-08-11T05:24:39.752Z,14.80
2022-08-11T05:27:28.097Z,14.90
2022-08-11T05:30:19.665Z,15.00
2022-08-11T05:33:14.760Z,15.10
2022-08-11T05:36:01.896Z,15.20
2022-08-11T05:38:53.160Z,15.30
2022-08-11T05:41:45.044Z,15.40
2022-08-11T05:44:37.966Z,15.50
2022-08-11T05:47:24.212Z,15.60
2022-08-11T05:50:13.602Z,15.70
2022-08-11T05:53:09.298Z,15.70
2022-08-11T05:56:02.962Z,15.80
2022-08-11T05:58:42.980Z,15.90
2022-08-11T06:01:13.111Z,16.00
2022-08-11T06:04:03.407Z,16.10
2022-08-11T06:06:30.995Z,16.20
2022-08-11T06:08:59.608Z,16.30
2022-08-11T06:11:43.719Z,16.30
2022-08-11T06:14:13.411Z,16.40
2022-08-11T06:16:42.861Z,16.40
2022-08-11T06:19:10.507Z,16.50
2022-08-11T06:21:38.328Z,16.60
2022-08-11T06:24:12.520Z,16.70
2022-08-11T06:27:01.556Z,16.70
2022-08-11T06:29:37.794Z,16.80
2022-08-11T06:32:16.238Z,16.80
2022-08-11T06:35:12.128Z,16.90
2022-08-11T06:38:03.840Z,17.00
2022-08-11T06:40:37.546Z,17.00
2022-08-11T06:43:25.932Z,17.10
2022-08-11T06:46:06.149Z,17.20
2022-08-11T06:48:34.059Z,17.30
2022-08-11T06:51:14.166Z,17.40
2022-08-11T06:54:04.954Z,17.40
2022-08-11T06:57:28.308Z,17.50
2022-08-11T07:00:06.451Z,17.50
2022-08-11T07:03:10.077Z,17.70
2022-08-11T07:05:45.038Z,17.70
2022-08-11T07:08:51.463Z,17.70
2022-08-11T07:12:07.304Z,17.90
2022-08-11T07:14:58.909Z,18.00
2022-08-11T07:17:30.543Z,18.00
2022-08-11T07:20:21.196Z,18.10
2022-08-11T07:23:19.797Z,18.20
2022-08-11T07:26:10.300Z,18.30
2022-08-11T07:28:58.031Z,18.40
2022-08-11T07:31:51.325Z,18.50
2022-08-11T07:34:25.709Z,18.50
2022-08-11T07:37:04.145Z,18.50
2022-08-11T07:39:36.060Z,18.70
2022-08-11T07:42:08.939Z,18.70
2022-08-11T07:44:59.262Z,18.90
2022-08-11T07:47:46.043Z,18.90
2022-08-11T07:50:32.927Z,19.00
2022-08-11T07:53:01.533Z,19.10
2022-08-11T07:55:50.764Z,19.20
2022-08-11T07:58:45.429Z,19.20
2022-08-11T08:01:43.975Z,19.30
2022-08-11T08:04:35.608Z,19.30
2022-08-11T08:07:23.391Z,19.40
2022-08-11T08:10:09.685Z,19.40
2022-08-11T08:13:01.088Z,19.50
2022-08-11T08:15:47.407Z,19.60
2022-08-11T08:18:26.617Z,19.70
2022-08-11T08:20:56.761Z,19.90
2022-08-11T08:23:35.968Z,19.90
2022-08-11T08:26:26.023Z,20.00
2022-08-11T08:28:55.202Z,20.10
2022-08-11T08:31:22.681Z,20.10
2022-08-11T08:33:49.801Z,20.20
2022-08-11T08:36:17.080Z,20.20
2022-08-11T08:38:54.113Z,20.40
2022-08-11T08:41:25.339Z,20.50
2022-08-11T08:43:56.401Z,20.60
2022-08-11T08:46:30.484Z,20.70
2022-08-11T08:49:01.943Z,20.80
2022-08-11T08:52:00.894Z,21.00
2022-08-11T08:54:30.307Z,21.10
2022-08-11T08:56:58.015Z,21.10
2022-08-11T08:59:26.906Z,21.30
2022-08-11T09:04:48.211Z,21.50
2022-08-11T09:07:18.289Z,21.60
2022-08-11T09:09:48.792Z,21.80
2022-08-11T09:12:17.505Z,21.90
2022-08-11T09:15:06.316Z,22.00
2022-08-11T09:17:40.958Z,22.20
2022-08-11T09:20:23.904Z,22.40
2022-08-11T09:24:07.945Z,22.50
2022-08-11T09:26:20.898Z,22.60
2022-08-11T09:28:50.106Z,22.80
2022-08-11T09:31:17.917Z,23.00
2022-08-11T09:33:51.313Z,23.10
2022-08-11T09:36:38.698Z,23.30
2022-08-11T09:39:25.641Z,23.60
2022-08-11T09:42:01.016Z,23.60
2022-08-11T09:44:50.502Z,23.70
2022-08-11T09:47:21.444Z,23.90
2022-08-11T09:49:49.081Z,24.00
2022-08-11T09:52:18.551Z,24.00
2022-08-11T09:54:48.743Z,24.00
2022-08-11T09:57:38.498Z,24.00
2022-08-11T10:00:13.404Z,24.10
2022-08-11T10:02:50.408Z,24.10
2022-08-11T10:05:39.752Z,24.30
2022-08-11T10:08:10.391Z,24.50
2022-08-11T10:10:39.176Z,24.80
2022-08-11T10:14:31.429Z,24.80
2022-08-11T10:16:15.214Z,24.90
2022-08-11T10:18:52.859Z,25.20
2022-08-11T10:21:34.578Z,25.30
2022-08-11T10:24:21.341Z,25.30
2022-08-11T10:26:55.796Z,25.30
2022-08-11T10:29:54.901Z,25.50
2022-08-11T10:32:57.401Z,25.50
2022-08-11T10:35:27.574Z,25.60
2022-08-11T10:38:07.949Z,25.60
2022-08-11T10:40:39.248Z,25.80
2022-08-11T10:43:13.411Z,25.80
2022-08-11T10:46:03.397Z,26.00
2022-08-11T10:48:35.014Z,26.30
2022-08-11T10:51:14.269Z,26.50
2022-08-11T10:54:11.457Z,26.50
2022-08-11T10:56:59.050Z,26.50
2022-08-11T10:59:28.154Z,26.70
2022-08-11T11:01:55.675Z,26.90
2022-08-11T11:04:37.721Z,27.10
2022-08-11T11:07:24.993Z,27.10
2022-08-11T11:09:57.474Z,27.00
2022-08-11T11:12:55.324Z,27.10
2022-08-11T11:15:43.390Z,27.40
2022-08-11T11:18:23.195Z,27.70
2022-08-11T11:21:06.033Z,28.00
2022-08-11T11:23:53.538Z,28.00
2022-08-11T11:26:27.629Z,28.00
2022-08-11T11:29:32.373Z,27.90
2022-08-11T11:32:11.151Z,28.00
2022-08-11T11:35:02.555Z,28.30
2022-08-11T11:37:35.915Z,28.60
2022-08-11T11:40:12.988Z,28.60
2022-08-11T11:42:41.703Z,28.80
2022-08-11T11:45:23.979Z,28.70
2022-08-11T11:47:54.023Z,28.50
2022-08-11T11:50:31.765Z,28.50
2022-08-11T11:53:02.037Z,28.50
2022-08-11T11:55:30.154Z,28.50
2022-08-11T11:58:18.858Z,28.70
2022-08-11T12:01:04.752Z,28.80
2022-08-11T12:03:33.353Z,28.60
2022-08-11T12:06:00.766Z,28.70
2022-08-11T12:08:28.469Z,28.70
2022-08-11T12:11:22.586Z,28.70
2022-08-11T12:13:52.666Z,28.50
2022-08-11T12:16:34.770Z,28.60
2022-08-11T12:19:15.235Z,28.70
2022-08-11T12:22:01.389Z,28.80
2022-08-11T12:24:49.247Z,29.00
2022-08-11T12:27:24.954Z,29.00
2022-08-11T12:30:01.231Z,29.20
2022-08-11T12:32:31.692Z,29.20
2022-08-11T12:34:59.293Z,29.40
2022-08-11T12:37:43.665Z,29.60
2022-08-11T12:40:43.757Z,29.20
2022-08-11T12:43:42.994Z,29.20
2022-08-11T12:46:33.027Z,29.40
2022-08-11T12:49:25.662Z,29.50
2022-08-11T12:52:14.724Z,29.90
2022-08-11T12:54:57.569Z,29.30
2022-08-11T12:57:56.944Z,29.30
2022-08-11T13:00:44.449Z,29.40
2022-08-11T13:03:32.458Z,29.40
2022-08-11T13:06:02.816Z,29.60
2022-08-11T13:08:33.807Z,29.70
2022-08-11T13:11:20.370Z,29.30
2022-08-11T13:13:53.470Z,29.40
2022-08-11T13:16:31.471Z,29.60
2022-08-11T13:19:01.340Z,29.20
2022-08-11T13:21:29.142Z,29.50
2022-08-11T13:24:01.388Z,29.60
2022-08-11T13:26:47.829Z,29.40
2022-08-11T13:29:25.357Z,29.20
2022-08-11T13:31:56.206Z,29.30
2022-08-11T13:34:26.787Z,29.20
2022-08-11T13:36:55.818Z,29.30
2022-08-11T13:39:26.020Z,29.30
2022-08-11T13:41:56.472Z,29.20
2022-08-11T13:44:29.960Z,29.60
2022-08-11T13:47:04.092Z,29.50
2022-08-11T13:49:33.227Z,29.20
2022-08-11T13:52:01.136Z,29.50
2022-08-11T13:54:32.037Z,28.90
2022-08-11T13:57:09.133Z,29.10
2022-08-11T13:59:51.806Z,28.90
2022-08-11T14:02:29.539Z,29.00
2022-08-11T14:05:07.161Z,29.30
2022-08-11T14:07:51.606Z,29.30
2022-08-11T14:10:26.935Z,29.40
2022-08-11T14:13:42.256Z,29.40
2022-08-11T14:16:20.433Z,29.30
2022-08-11T14:18:49.035Z,29.10
2022-08-11T14:21:36.009Z,29.20
2022-08-11T14:24:04.635Z,29.60
2022-08-11T14:26:38.729Z,30.00
2022-08-11T14:29:15.223Z,29.90
2022-08-11T14:31:56.412Z,29.80
2022-08-11T14:34:24.461Z,29.80
2022-08-11T14:37:00.601Z,29.80
2022-08-11T14:39:37.658Z,29.60
2022-08-11T14:42:27.433Z,29.70
2022-08-11T14:45:23.014Z,29.60
2022-08-11T14:47:54.355Z,29.90
2022-08-11T14:50:26.686Z,29.30
2022-08-11T14:52:59.669Z,29.10
2022-08-11T14:55:47.678Z,29.10
2022-08-11T14:58:23.490Z,29.10
2022-08-11T15:00:54.610Z,29.30
2022-08-11T15:06:02.264Z,29.10
2022-08-11T15:08:52.699Z,28.70
2022-08-11T15:11:40.807Z,28.80
2022-08-11T15:14:09.882Z,28.80
2022-08-11T15:17:04.258Z,29.00
2022-08-11T15:19:40.746Z,29.20
2022-08-11T15:22:28.393Z,29.10
2022-08-11T15:24:57.573Z,28.90
2022-08-11T15:27:44.372Z,28.90
2022-08-11T15:30:33.915Z,28.80
2022-08-11T15:33:27.667Z,28.80
2022-08-11T15:36:14.497Z,28.80
2022-08-11T15:38:55.411Z,28.80
2022-08-11T15:41:46.520Z,28.60
2022-08-11T15:45:02.785Z,28.40
2022-08-11T15:47:39.016Z,28.30
2022-08-11T15:50:15.227Z,28.20
2022-08-11T15:52:56.183Z,28.00
2022-08-11T15:55:24.512Z,28.20
2022-08-11T15:58:12.224Z,28.10
2022-08-11T16:01:04.094Z,28.20
2022-08-11T16:04:13.272Z,28.20
2022-08-11T16:06:44.013Z,28.20
2022-08-11T16:09:19.328Z,28.10
2022-08-11T16:11:47.538Z,28.10
2022-08-11T16:14:35.980Z,28.10
2022-08-11T16:17:04.483Z,27.90
2022-08-11T16:19:36.561Z,27.50
2022-08-11T16:22:07.868Z,27.40
2022-08-11T16:27:03.322Z,27.20
2022-08-11T16:27:27.480Z,26.90
2022-08-11T16:29:56.596Z,26.90
2022-08-11T16:32:25.798Z,26.90
2022-08-11T16:35:18.684Z,27.00
2022-08-11T16:38:05.559Z,27.10
2022-08-11T16:40:33.697Z,27.20
2022-08-11T16:43:21.807Z,27.20
2022-08-11T16:46:07.801Z,27.10
2022-08-11T16:48:38.807Z,27.00
2022-08-11T16:51:07.032Z,26.90
2022-08-11T16:54:03.359Z,26.60
2022-08-11T16:56:25.070Z,26.70
2022-08-11T16:59:13.350Z,26.30
2022-08-11T17:01:46.349Z,26.10
2022-08-11T17:04:40.132Z,26.00
2022-08-11T17:07:40.536Z,25.80
2022-08-11T17:11:03.664Z,25.70
2022-08-11T17:13:57.479Z,25.50
2022-08-11T17:16:28.029Z,25.40
2022-08-11T17:19:02.915Z,25.30
2022-08-11T17:21:35.688Z,25.20
2022-08-11T17:24:09.492Z,25.10
2022-08-11T17:26:55.693Z,25.00
2022-08-11T17:29:54.679Z,25.00
2022-08-11T17:33:00.465Z,25.00
2022-08-11T17:35:38.740Z,24.90
2022-08-11T17:38:09.958Z,24.80
2022-08-11T17:41:02.247Z,24.80
2022-08-11T17:43:48.363Z,24.70
2022-08-11T17:46:38.084Z,24.70
2022-08-11T17:49:08.154Z,24.60
2022-08-11T17:51:55.337Z,24.50
2022-08-11T17:54:43.017Z,24.50
2022-08-11T17:57:30.429Z,24.30
2022-08-11T17:59:59.360Z,24.10
2022-08-11T18:02:49.338Z,24.00
2022-08-11T18:05:21.235Z,23.80
2022-08-11T18:08:11.584Z,23.60
2022-08-11T18:10:58.618Z,23.50
2022-08-11T18:13:47.557Z,23.40
2022-08-11T18:16:33.278Z,23.30
2022-08-11T18:19:19.484Z,23.10
2022-08-11T18:22:14.395Z,23.00
2022-08-11T18:25:09.092Z,22.90
2022-08-11T18:27:56.768Z,22.70
2022-08-11T18:30:43.272Z,22.60
2022-08-11T18:36:42.331Z,22.20
2022-08-11T18:39:31.112Z,22.10
2022-08-11T18:42:29.046Z,21.90
2022-08-11T18:45:20.310Z,21.80
2022-08-11T18:48:09.314Z,21.60
2022-08-11T18:51:28.065Z,21.50
2022-08-11T18:54:09.179Z,21.40
2022-08-11T18:56:55.407Z,21.30
2022-08-11T18:59:44.856Z,21.10
2022-08-11T19:02:31.814Z,21.00
2022-08-11T19:05:20.496Z,20.90
2022-08-11T19:08:28.698Z,20.80
2022-08-11T19:11:15.845Z,20.70
2022-08-11T19:14:07.133Z,20.60
2022-08-11T19:16:54.353Z,20.40
2022-08-11T19:19:43.209Z,20.40
2022-08-11T19:22:32.500Z,20.30
2022-08-11T19:25:23.287Z,20.20
2022-08-11T19:28:12.742Z,20.00
2022-08-11T19:30:59.820Z,20.00
2022-08-11T19:33:59.931Z,19.90
2022-08-11T19:36:50.272Z,19.80
2022-08-11T19:39:38.042Z,19.70
2022-08-11T19:42:28.231Z,19.70
2022-08-11T19:45:15.134Z,19.60
2022-08-11T19:48:30.115Z,19.40
2022-08-11T19:51:10.160Z,19.40
2022-08-11T19:53:56.234Z,19.30
2022-08-11T19:56:42.233Z,19.20
2022-08-11T19:59:28.656Z,19.10
2022-08-11T20:02:14.801Z,19.10
2022-08-11T20:05:00.910Z,19.00
2022-08-11T20:07:47.721Z,18.90
2022-08-11T20:10:37.446Z,18.90
2022-08-11T20:13:26.700Z,18.80
2022-08-11T20:16:14.037Z,18.70
2022-08-11T20:19:01.635Z,18.70
2022-08-11T20:21:47.976Z,18.60
2022-08-11T20:24:36.119Z,18.60
2022-08-11T20:27:25.406Z,18.50
2022-08-11T20:30:14.483Z,18.50
2022-08-11T20:33:00.978Z,18.50
2022-08-11T20:35:47.679Z,18.40
2022-08-11T20:38:34.786Z,18.40
2022-08-11T20:41:22.454Z,18.40
2022-08-11T20:44:09.761Z,18.20
2022-08-11T20:46:57.768Z,18.20
2022-08-11T20:49:53.642Z,18.20
2022-08-11T20:52:48.120Z,18.10
2022-08-11T20:55:51.445Z,18.10
2022-08-11T21:04:33.751Z,17.90
2022-08-11T21:07:29.028Z,17.90
2022-08-11T21:10:23.194Z,17.90
2022-08-11T21:13:25.573Z,17.80
2022-08-11T21:16:25.201Z,17.70
2022-08-11T21:19:59.548Z,17.70
2022-08-11T21:22:37.352Z,17.70
2022-08-11T21:25:25.792Z,17.60
2022-08-11T21:28:11.931Z,17.70
2022-08-11T21:30:58.597Z,17.60
2022-08-11T21:33:46.800Z,17.60
2022-08-11T21:36:33.671Z,17.60
2022-08-11T21:39:24.989Z,17.50
2022-08-11T21:42:13.058Z,17.40
2022-08-11T21:45:01.033Z,17.30
2022-08-11T21:47:48.512Z,17.20
2022-08-11T21:50:34.128Z,17.10
2022-08-11T21:53:20.252Z,17.10
2022-08-11T21:56:06.548Z,17.10
2022-08-11T21:58:52.755Z,17.10
2022-08-11T22:01:39.763Z,17.10
2022-08-11T22:04:26.240Z,17.20
2022-08-11T22:07:12.497Z,17.20
2022-08-11T22:09:58.014Z,17.20
2022-08-11T22:12:45.230Z,17.10
2022-08-11T22:15:30.830Z,17.10
2022-08-11T22:18:16.390Z,17.10
2022-08-11T22:21:03.450Z,17.00
2022-08-11T22:23:54.775Z,17.00
2022-08-11T22:26:41.805Z,16.90
2022-08-11T22:29:50.203Z,16.80
2022-08-11T22:32:38.146Z,16.70
2022-08-11T22:35:28.677Z,16.60
2022-08-11T22:38:16.177Z,16.60
2022-08-11T22:41:02.095Z,16.60
2022-08-11T22:43:47.833Z,16.50
2022-08-11T22:46:35.326Z,16.50
2022-08-11T22:49:21.135Z,16.40
2022-08-11T22:52:08.053Z,16.40
2022-08-11T22:54:53.995Z,16.30
2022-08-11T22:57:40.768Z,16.20
2022-08-11T23:00:46.951Z,16.20
2022-08-11T23:03:37.161Z,16.10
2022-08-11T23:06:25.332Z,16.00
2022-08-11T23:09:12.186Z,16.00
2022-08-11T23:12:06.846Z,15.90
2022-08-11T23:14:57.295Z,15.80
2022-08-11T23:17:42.784Z,15.80
2022-08-11T23:20:39.837Z,15.70
2022-08-11T23:23:27.890Z,15.60
2022-08-11T23:26:14.871Z,15.50
2022-08-11T23:29:02.500Z,15.40
2022-08-11T23:31:53.434Z,15.40
2022-08-11T23:35:37.099Z,15.30
2022-08-11T23:37:48.112Z,15.30
2022-08-11T23:40:33.691Z,15.20
2022-08-11T23:43:19.825Z,15.20
2022-08-11T23:46:05.305Z,15.10
2022-08-11T23:48:51.230Z,15.10
2022-08-11T23:51:40.464Z,15.10
2022-08-11T23:54:27.706Z,15.00
2022-08-11T23:57:14.450Z,15.00
